Pollock, Idaho
Current Conditions -  °F | °C
As of 11:51 PM on Saturday 25 Oct 2014 (Local Time) from KMYL Reporting Station
Scattered Clouds Scattered Clouds  
Wind Chill: 44°   Ceiling: Unl
Heat Index: 49°   Visibility: 10mi
Dew Point: 33°   Wind: 14mph
Humidity: 54%   Direction: 140°SE
Pressure: 29.82"   Gusts: NA
Location:  45.31°N, 116.36°W
Report Text: KMYL 260551Z AUTO 14012KT 10SM FEW050 FEW065 SCT080 09/01 A2982 RMK AO2 SLP087 60000 T00940006 10144 20094 53003
Loading
Personal Weather Stations






























Interactive Weather Map
Tropical Storm Tracking
New forecast layout! Learn more

10-Day Weather Forecast

Advertisements
Track Severe Weather on mobile